Time;durP1;ratioP1;P1;durP2;ratioP2;P2;SDS_P1;SDS_P2;PMS_P1;PMS_P2;Temp;Humidity;BMP_temperature;BMP_pressure;BME280_temperature;BME280_humidity;BME280_pressure;Samples;Min_cycle;Max_cycle;Signal;HPM_P1;HPM_P2
2023/05/12 00:01:29;;;;;;;82.28;76.57;;;11.20;99.90;;;;;;4987682;28;20062;-72
2023/05/12 00:03:54;;;;;;;76.75;71.50;;;11.20;99.90;;;;;;4981686;28;20561;-73
2023/05/12 00:06:20;;;;;;;84.75;78.93;;;11.20;99.90;;;;;;4971385;28;20077;-73
2023/05/12 00:08:46;;;;;;;81.63;76.07;;;11.20;99.90;;;;;;4981512;28;20042;-73
2023/05/12 00:11:12;;;;;;;82.57;76.40;;;11.20;99.90;;;;;;4969566;28;20089;-72
2023/05/12 00:13:37;;;;;;;67.43;62.80;;;11.20;99.90;;;;;;4987475;28;20174;-73
2023/05/12 00:16:03;;;;;;;72.93;67.60;;;11.20;99.90;;;;;;4984794;28;20105;-73
2023/05/12 00:18:29;;;;;;;62.35;56.85;;;11.20;99.90;;;;;;4983318;28;20057;-73
2023/05/12 00:20:55;;;;;;;73.45;67.85;;;11.30;99.90;;;;;;4969126;28;20390;-73
2023/05/12 00:23:21;;;;;;;71.28;65.78;;;11.20;99.90;;;;;;4984256;28;20049;-73
2023/05/12 00:25:47;;;;;;;59.92;55.35;;;11.30;99.90;;;;;;4968055;28;20432;-73
2023/05/12 00:28:13;;;;;;;58.50;53.42;;;11.30;99.90;;;;;;4979883;28;20133;-73
2023/05/12 00:30:39;;;;;;;65.53;60.38;;;11.30;99.90;;;;;;4985319;28;20466;-73
2023/05/12 00:33:04;;;;;;;57.47;52.70;;;11.30;99.90;;;;;;4987428;28;20537;-73
2023/05/12 00:35:30;;;;;;;65.20;59.28;;;11.30;99.90;;;;;;4987729;28;20074;-73
2023/05/12 00:37:55;;;;;;;57.20;52.13;;;11.30;99.90;;;;;;4988656;28;20034;-73
2023/05/12 00:40:21;;;;;;;57.15;52.30;;;11.20;99.90;;;;;;4970111;28;20092;-73
2023/05/12 00:42:47;;;;;;;61.03;55.75;;;11.20;99.90;;;;;;4986329;28;20045;-73
2023/05/12 00:45:12;;;;;;;63.58;57.58;;;11.20;99.90;;;;;;4986683;28;20352;-73
2023/05/12 00:47:38;;;;;;;57.15;52.13;;;11.30;99.90;;;;;;4985792;28;20148;-73
2023/05/12 00:50:05;;;;;;;72.35;66.72;;;11.30;99.90;;;;;;4986956;28;20045;-72
2023/05/12 00:52:30;;;;;;;58.33;52.83;;;11.30;99.90;;;;;;4980000;28;20112;-73
2023/05/12 00:54:57;;;;;;;60.03;54.45;;;11.30;99.90;;;;;;4981231;28;20511;-73
2023/05/12 00:57:24;;;;;;;57.40;52.28;;;11.30;99.90;;;;;;4986308;28;20097;-73
2023/05/12 00:59:50;;;;;;;59.35;53.35;;;11.30;99.90;;;;;;4973137;28;20042;-73
2023/05/12 01:02:16;;;;;;;62.50;56.92;;;11.30;99.90;;;;;;4986072;28;20137;-72
2023/05/12 01:04:41;;;;;;;64.85;58.53;;;11.30;99.90;;;;;;4983130;28;20509;-73
2023/05/12 01:07:30;;;;;;;66.93;60.83;;;11.30;99.90;;;;;;4985256;28;20509;-73
2023/05/12 01:09:56;;;;;;;69.43;63.80;;;11.30;99.90;;;;;;4979751;28;20078;-73
2023/05/12 01:12:23;;;;;;;67.00;60.50;;;11.30;99.90;;;;;;4986891;28;20046;-73
2023/05/12 01:14:50;;;;;;;65.60;59.10;;;11.30;99.90;;;;;;4975491;28;20198;-73
2023/05/12 01:17:20;;;;;;;62.20;56.42;;;11.30;99.90;;;;;;4982348;28;20430;-73
2023/05/12 01:19:52;;;;;;;66.53;59.38;;;11.30;99.90;;;;;;4986863;28;20144;-73
2023/05/12 01:22:18;;;;;;;63.20;57.08;;;11.40;99.90;;;;;;4984678;28;20038;-73
2023/05/12 01:24:56;;;;;;;65.20;58.42;;;11.30;99.90;;;;;;4984619;28;20450;-73
2023/05/12 01:27:24;;;;;;;66.10;59.72;;;11.40;99.90;;;;;;4987339;28;20072;-73
2023/05/12 01:29:51;;;;;;;68.05;61.22;;;11.40;99.90;;;;;;4983922;28;20059;-73
2023/05/12 01:32:17;;;;;;;70.30;63.33;;;11.40;99.90;;;;;;4970232;28;20054;-73
2023/05/12 01:34:44;;;;;;;69.70;63.08;;;11.40;99.90;;;;;;4984878;28;20398;-73
2023/05/12 01:37:10;;;;;;;67.70;61.08;;;11.40;99.90;;;;;;4985832;28;20034;-73
2023/05/12 01:39:36;;;;;;;71.05;63.75;;;11.40;99.90;;;;;;4984919;28;20042;-73
2023/05/12 01:42:04;;;;;;;71.38;63.58;;;11.40;99.90;;;;;;4985703;28;20034;-73
2023/05/12 01:44:29;;;;;;;70.35;63.30;;;11.40;99.90;;;;;;4985955;28;20049;-73
2023/05/12 01:46:55;;;;;;;68.78;61.78;;;11.40;99.90;;;;;;4985548;28;20129;-73
2023/05/12 01:49:21;;;;;;;73.38;66.35;;;11.50;99.90;;;;;;4986582;28;20046;-73
2023/05/12 01:51:47;;;;;;;70.28;63.63;;;11.50;99.90;;;;;;4985064;28;20050;-73
2023/05/12 01:54:13;;;;;;;69.63;62.75;;;11.50;99.90;;;;;;4985514;28;20054;-73
2023/05/12 01:56:38;;;;;;;71.28;65.18;;;11.50;99.90;;;;;;4985070;28;20073;-73
2023/05/12 01:59:04;;;;;;;67.82;61.53;;;11.50;99.90;;;;;;4986240;28;20046;-73
2023/05/12 02:01:31;;;;;;;68.53;61.60;;;11.50;99.90;;;;;;4985590;28;20507;-73
2023/05/12 02:03:57;;;;;;;69.47;62.55;;;11.50;99.90;;;;;;4986113;28;20053;-73
2023/05/12 02:06:24;;;;;;;69.43;63.28;;;11.60;99.90;;;;;;4968042;28;20414;-72
2023/05/12 02:08:49;;;;;;;66.15;59.50;;;11.60;99.90;;;;;;4990608;28;20101;-73
2023/05/12 02:11:15;;;;;;;68.97;62.05;;;11.60;99.90;;;;;;4989858;28;20054;-73
2023/05/12 02:13:43;;;;;;;74.13;67.72;;;11.60;99.90;;;;;;4989181;28;20042;-73
2023/05/12 02:16:09;;;;;;;69.72;61.72;;;11.60;99.90;;;;;;4989500;28;20038;-72
2023/05/12 02:18:35;;;;;;;67.07;59.80;;;11.60;99.90;;;;;;4989757;28;20046;-73
2023/05/12 02:21:02;;;;;;;65.63;58.78;;;11.60;99.90;;;;;;4973130;28;20054;-73
2023/05/12 02:23:27;;;;;;;68.57;61.28;;;11.70;99.90;;;;;;4987935;28;20042;-73
2023/05/12 02:25:53;;;;;;;65.65;58.50;;;11.70;99.90;;;;;;4989279;28;20608;-73
2023/05/12 02:28:18;;;;;;;67.60;56.72;;;11.70;99.90;;;;;;4983984;28;20056;-73
2023/05/12 02:30:49;;;;;;;65.72;58.55;;;11.70;99.90;;;;;;4973293;28;20038;-73
2023/05/12 02:33:24;;;;;;;66.45;59.60;;;11.70;99.90;;;;;;4988839;28;20397;-73
2023/05/12 02:35:50;;;;;;;71.30;59.83;;;11.70;99.90;;;;;;4989502;28;20057;-73
2023/05/12 02:38:15;;;;;;;72.55;59.28;;;11.70;99.90;;;;;;4987636;28;20046;-73
2023/05/12 02:40:41;;;;;;;65.72;58.47;;;11.70;99.90;;;;;;4987479;28;20045;-74
2023/05/12 02:43:07;;;;;;;74.55;58.78;;;11.70;99.90;;;;;;4989863;28;20041;-73
2023/05/12 02:45:32;;;;;;;66.32;59.72;;;11.70;99.90;;;;;;4989672;28;20129;-73
2023/05/12 02:47:58;;;;;;;72.07;57.80;;;11.70;99.90;;;;;;4989908;28;20046;-73
2023/05/12 02:50:24;;;;;;;70.05;58.15;;;11.70;99.90;;;;;;4988068;28;20153;-73
2023/05/12 02:52:50;;;;;;;71.75;59.08;;;11.70;99.90;;;;;;4987640;28;20127;-73
2023/05/12 02:55:16;;;;;;;71.85;61.40;;;11.70;99.90;;;;;;4972570;28;20490;-73
2023/05/12 02:57:42;;;;;;;65.50;58.22;;;11.70;99.90;;;;;;4988401;28;20058;-73
2023/05/12 03:00:09;;;;;;;67.75;57.78;;;11.70;99.90;;;;;;4988534;28;20072;-73
2023/05/12 03:02:37;;;;;;;71.13;60.15;;;11.70;99.90;;;;;;4989119;28;20081;-73
2023/05/12 03:05:03;;;;;;;73.22;62.85;;;11.70;99.90;;;;;;5004685;28;20431;-73
2023/05/12 03:07:29;;;;;;;74.55;67.18;;;11.70;99.90;;;;;;4971925;28;20065;-73
2023/05/12 03:09:54;;;;;;;72.38;64.53;;;11.70;99.90;;;;;;4988085;28;20054;-73
2023/05/12 03:12:20;;;;;;;76.32;68.70;;;11.70;99.90;;;;;;4988498;28;20438;-73
2023/05/12 03:14:46;;;;;;;79.22;70.93;;;11.70;99.90;;;;;;4979602;28;20500;-73
2023/05/12 03:17:12;;;;;;;79.90;71.75;;;11.70;99.90;;;;;;5000943;28;20042;-73
2023/05/12 03:19:37;;;;;;;81.25;72.40;;;11.70;99.90;;;;;;4986959;28;20136;-73
2023/05/12 03:22:03;;;;;;;83.53;74.82;;;11.80;99.90;;;;;;4986346;28;20724;-73
2023/05/12 03:24:29;;;;;;;83.97;75.60;;;11.80;99.90;;;;;;4983896;28;20041;-73
2023/05/12 03:26:55;;;;;;;81.50;73.47;;;11.80;99.90;;;;;;4984177;28;20042;-73
2023/05/12 03:29:21;;;;;;;83.18;74.45;;;11.80;99.90;;;;;;4988832;28;20121;-73
2023/05/12 03:31:46;;;;;;;78.85;70.60;;;11.80;99.90;;;;;;4971113;28;20058;-73
2023/05/12 03:34:12;;;;;;;75.85;67.80;;;11.80;99.90;;;;;;4989073;28;20042;-73
2023/05/12 03:36:38;;;;;;;83.82;70.25;;;11.80;99.90;;;;;;4989280;28;20042;-73
2023/05/12 03:39:03;;;;;;;81.57;73.65;;;11.80;99.90;;;;;;4982317;28;20046;-73
2023/05/12 03:41:29;;;;;;;82.10;73.18;;;11.90;99.90;;;;;;4966785;28;20045;-73
2023/05/12 03:43:55;;;;;;;81.43;73.03;;;11.90;99.90;;;;;;4987945;28;20038;-72
2023/05/12 03:46:21;;;;;;;84.10;75.10;;;11.90;99.90;;;;;;4987348;28;20062;-73
2023/05/12 03:48:47;;;;;;;84.78;76.35;;;11.90;99.90;;;;;;5004403;28;20038;-72
2023/05/12 03:51:12;;;;;;;90.95;81.93;;;11.90;99.90;;;;;;4987435;28;20053;-73
2023/05/12 03:53:44;;;;;;;84.88;76.63;;;11.90;99.90;;;;;;4987113;28;20068;-73
2023/05/12 03:56:09;;;;;;;99.70;90.68;;;11.90;99.90;;;;;;4982489;28;20056;-73
2023/05/12 03:58:35;;;;;;;95.20;86.47;;;12.00;99.90;;;;;;4971684;28;20046;-73
2023/05/12 04:01:01;;;;;;;100.70;92.28;;;12.00;99.90;;;;;;4975355;28;20055;-73
2023/05/12 04:03:28;;;;;;;100.85;92.55;;;12.00;99.90;;;;;;4986094;28;20410;-73
2023/05/12 04:05:58;;;;;;;102.53;94.45;;;12.00;99.90;;;;;;4987726;28;20454;-73
2023/05/12 04:08:23;;;;;;;94.30;86.00;;;12.00;99.90;;;;;;4970224;28;20047;-73
2023/05/12 04:10:49;;;;;;;98.05;90.15;;;12.00;99.90;;;;;;4987898;28;20104;-73
2023/05/12 04:13:14;;;;;;;94.38;85.72;;;12.00;99.90;;;;;;4986272;28;20049;-73
2023/05/12 04:15:40;;;;;;;95.47;86.68;;;12.10;99.90;;;;;;4987864;28;20046;-73
2023/05/12 04:18:06;;;;;;;102.47;92.97;;;12.10;99.90;;;;;;4987469;28;20129;-73
2023/05/12 04:20:31;;;;;;;95.05;86.35;;;12.10;99.90;;;;;;4987360;28;20047;-73
2023/05/12 04:22:57;;;;;;;96.28;88.03;;;12.10;99.90;;;;;;4987310;28;20046;-73
2023/05/12 04:25:23;;;;;;;109.03;100.15;;;12.10;99.90;;;;;;4989485;28;20070;-73
2023/05/12 04:27:48;;;;;;;99.88;91.43;;;12.10;99.90;;;;;;4978596;28;20049;-73
2023/05/12 04:30:14;;;;;;;96.05;87.43;;;12.10;99.90;;;;;;4978817;28;20075;-73
2023/05/12 04:32:39;;;;;;;104.50;95.82;;;12.10;99.90;;;;;;4976122;28;20039;-73
2023/05/12 04:35:05;;;;;;;105.30;96.85;;;12.20;99.90;;;;;;4958547;28;20049;-73
2023/05/12 04:37:31;;;;;;;103.07;95.05;;;12.20;99.90;;;;;;4996325;28;20189;-73
2023/05/12 04:39:56;;;;;;;111.63;103.03;;;12.20;99.90;;;;;;4971263;28;20038;-73
2023/05/12 04:42:22;;;;;;;95.93;87.78;;;12.20;99.90;;;;;;4971459;28;20428;-73
2023/05/12 04:44:47;;;;;;;98.20;89.43;;;12.20;99.90;;;;;;4967534;28;20454;-73
2023/05/12 04:47:13;;;;;;;96.80;88.28;;;12.20;99.90;;;;;;4987189;28;20046;-73
2023/05/12 04:49:39;;;;;;;107.22;98.97;;;12.20;99.90;;;;;;4986012;28;20046;-73
2023/05/12 04:52:04;;;;;;;100.50;91.85;;;12.30;99.90;;;;;;4986776;28;20469;-73
2023/05/12 04:54:31;;;;;;;97.57;88.85;;;12.30;99.90;;;;;;4985911;28;20045;-73
2023/05/12 04:56:57;;;;;;;101.22;92.25;;;12.30;99.90;;;;;;5003135;28;20053;-73
2023/05/12 04:59:22;;;;;;;89.35;81.65;;;12.30;99.90;;;;;;4980576;28;20047;-73
2023/05/12 05:01:48;;;;;;;83.03;75.05;;;12.40;99.90;;;;;;4984489;28;20062;-72
2023/05/12 05:04:14;;;;;;;83.22;74.78;;;12.40;99.90;;;;;;4970433;28;20161;-72
2023/05/12 05:06:40;;;;;;;79.95;72.18;;;12.40;99.90;;;;;;4983458;28;20128;-73
2023/05/12 05:09:06;;;;;;;84.72;77.32;;;12.40;99.90;;;;;;4984685;28;20053;-72
2023/05/12 05:11:31;;;;;;;80.80;72.78;;;12.40;99.90;;;;;;4979982;28;20073;-73
2023/05/12 05:13:57;;;;;;;83.90;76.22;;;12.50;99.90;;;;;;4969742;28;20050;-72
2023/05/12 05:16:23;;;;;;;72.95;65.80;;;12.50;99.90;;;;;;4982865;28;20050;-73
2023/05/12 05:18:49;;;;;;;74.70;67.05;;;12.50;99.90;;;;;;4984083;28;20034;-73
2023/05/12 05:21:14;;;;;;;86.88;79.63;;;12.50;99.90;;;;;;4987178;28;20060;-73
2023/05/12 05:23:41;;;;;;;102.97;95.05;;;12.60;99.90;;;;;;4963573;28;20081;-72
2023/05/12 05:26:07;;;;;;;75.68;68.93;;;12.60;99.90;;;;;;4984625;28;20049;-73
2023/05/12 05:28:34;;;;;;;76.07;68.55;;;12.60;99.90;;;;;;4987623;28;20046;-73
2023/05/12 05:30:59;;;;;;;90.32;81.93;;;12.60;99.90;;;;;;4979472;28;20053;-72
2023/05/12 05:33:25;;;;;;;76.03;68.60;;;12.70;99.90;;;;;;4971862;28;20042;-72
2023/05/12 05:35:51;;;;;;;64.18;57.42;;;12.70;99.90;;;;;;4984093;28;20092;-72
2023/05/12 05:38:16;;;;;;;83.05;75.05;;;12.80;99.90;;;;;;4983809;28;20046;-72
2023/05/12 05:40:42;;;;;;;87.10;79.18;;;12.80;99.90;;;;;;4977378;28;20045;-72
2023/05/12 05:43:08;;;;;;;76.40;69.18;;;12.90;99.90;;;;;;4990222;28;20038;-72
2023/05/12 05:45:34;;;;;;;77.72;70.28;;;12.90;99.90;;;;;;4991163;28;20042;-72
2023/05/12 05:48:00;;;;;;;75.20;68.07;;;12.90;99.90;;;;;;4988704;28;20073;-72
2023/05/12 05:50:26;;;;;;;83.85;76.70;;;12.90;99.90;;;;;;4990604;28;20144;-72
2023/05/12 05:52:53;;;;;;;77.80;70.43;;;12.90;99.90;;;;;;4984420;28;20052;-72
2023/05/12 05:55:19;;;;;;;78.15;70.55;;;12.90;99.90;;;;;;4992341;28;20049;-73
2023/05/12 05:57:45;;;;;;;77.63;70.32;;;12.90;99.90;;;;;;4986183;28;20038;-72
2023/05/12 06:00:13;;;;;;;73.50;66.82;;;12.90;99.90;;;;;;4984997;28;20034;-72
2023/05/12 06:02:39;;;;;;;78.70;71.07;;;12.90;99.90;;;;;;4987792;28;20058;-72
2023/05/12 06:05:05;;;;;;;73.25;66.45;;;12.90;99.90;;;;;;4988932;28;20458;-73
2023/05/12 06:07:31;;;;;;;76.07;68.53;;;12.90;99.90;;;;;;4990513;28;20375;-72
2023/05/12 06:09:57;;;;;;;71.93;64.72;;;13.00;99.90;;;;;;4989893;28;20167;-72
2023/05/12 06:12:23;;;;;;;76.72;69.18;;;13.00;99.90;;;;;;4990635;28;20081;-72
2023/05/12 06:14:48;;;;;;;73.90;66.47;;;13.00;99.90;;;;;;4972636;28;20040;-72
2023/05/12 06:17:14;;;;;;;68.75;61.90;;;13.00;99.90;;;;;;4990459;28;20513;-72
2023/05/12 06:19:39;;;;;;;73.60;66.22;;;13.10;99.90;;;;;;4981221;28;20085;-72
2023/05/12 06:22:05;;;;;;;73.65;66.60;;;13.10;99.90;;;;;;4989697;28;20046;-72
2023/05/12 06:24:31;;;;;;;79.88;72.82;;;13.20;99.90;;;;;;4989334;28;20044;-73
2023/05/12 06:26:56;;;;;;;88.75;81.72;;;13.20;99.90;;;;;;4989888;28;20042;-72
2023/05/12 06:29:22;;;;;;;91.65;84.38;;;13.30;99.90;;;;;;4988769;28;20042;-72
2023/05/12 06:31:47;;;;;;;76.85;70.00;;;13.40;99.90;;;;;;4990754;28;20042;-73
2023/05/12 06:34:13;;;;;;;72.93;66.72;;;13.50;99.90;;;;;;4988290;28;20520;-73
2023/05/12 06:36:39;;;;;;;65.43;59.42;;;13.60;99.90;;;;;;4976579;28;20039;-73
2023/05/12 06:39:04;;;;;;;64.30;57.75;;;13.60;99.90;;;;;;4993134;28;20700;-72
2023/05/12 06:41:32;;;;;;;59.78;54.22;;;13.70;99.90;;;;;;4986221;28;20124;-72
2023/05/12 06:44:00;;;;;;;54.67;48.97;;;13.70;99.90;;;;;;4982859;28;20045;-72
2023/05/12 06:46:26;;;;;;;57.08;51.15;;;13.80;99.90;;;;;;4989703;28;20050;-72
2023/05/12 06:48:51;;;;;;;54.25;47.72;;;13.80;99.90;;;;;;4989791;28;20049;-72
2023/05/12 06:51:17;;;;;;;51.60;46.03;;;13.90;99.90;;;;;;4988633;28;20433;-72
2023/05/12 06:53:42;;;;;;;52.05;46.28;;;13.90;99.90;;;;;;4988993;28;20041;-72
2023/05/12 06:56:10;;;;;;;58.00;52.72;;;14.00;99.90;;;;;;4989152;28;20129;-73
2023/05/12 06:58:35;;;;;;;59.63;53.78;;;14.10;99.90;;;;;;4988714;28;20042;-72
2023/05/12 07:01:01;;;;;;;53.67;48.33;;;14.00;99.90;;;;;;4988451;28;20499;-72
2023/05/12 07:03:31;;;;;;;50.80;45.42;;;14.00;99.90;;;;;;5005581;28;20046;-72
2023/05/12 07:05:57;;;;;;;52.75;47.10;;;14.10;99.90;;;;;;4988838;28;20573;-72
2023/05/12 07:08:22;;;;;;;51.10;45.78;;;14.20;99.90;;;;;;4987922;28;20050;-72
2023/05/12 07:10:48;;;;;;;54.22;48.83;;;14.20;99.90;;;;;;4988934;28;20129;-72
2023/05/12 07:13:13;;;;;;;52.78;46.45;;;14.20;99.90;;;;;;4987740;28;20213;-73
2023/05/12 07:15:39;;;;;;;52.47;46.95;;;14.20;99.90;;;;;;4988425;28;20050;-73
2023/05/12 07:18:05;;;;;;;54.10;46.55;;;14.30;99.90;;;;;;4988947;28;20790;-72
2023/05/12 07:20:30;;;;;;;59.70;54.25;;;14.40;99.90;;;;;;4988834;28;20038;-73
2023/05/12 07:22:56;;;;;;;68.82;62.60;;;14.40;99.90;;;;;;4987973;28;20034;-72
2023/05/12 07:25:22;;;;;;;54.22;48.80;;;14.50;99.90;;;;;;4984958;28;20053;-72
2023/05/12 07:27:48;;;;;;;58.17;52.50;;;14.50;99.90;;;;;;4979540;28;20422;-72
2023/05/12 07:30:14;;;;;;;64.35;58.63;;;14.60;99.90;;;;;;4987347;28;20053;-72
2023/05/12 07:32:40;;;;;;;71.18;65.15;;;14.60;99.90;;;;;;4988299;28;20057;-72
2023/05/12 07:35:06;;;;;;;74.20;68.03;;;14.60;99.90;;;;;;4977412;28;20046;-73
2023/05/12 07:37:32;;;;;;;77.35;71.28;;;14.70;99.90;;;;;;4987011;28;20119;-72
2023/05/12 07:39:57;;;;;;;74.25;68.20;;;14.70;99.90;;;;;;4971878;28;20070;-72
2023/05/12 07:42:23;;;;;;;74.70;68.47;;;14.80;99.90;;;;;;4986694;28;20561;-72
2023/05/12 07:44:48;;;;;;;63.55;57.88;;;14.90;99.90;;;;;;4988895;28;20042;-72
2023/05/12 07:47:14;;;;;;;85.32;78.82;;;15.00;99.90;;;;;;4987640;28;20096;-72
2023/05/12 07:49:40;;;;;;;79.90;73.78;;;15.10;99.90;;;;;;4986270;28;20505;-72
2023/05/12 07:52:05;;;;;;;83.55;77.55;;;15.20;99.90;;;;;;4988020;28;20057;-72
2023/05/12 07:54:31;;;;;;;69.43;63.38;;;15.30;99.90;;;;;;4987140;28;20034;-73
2023/05/12 07:56:57;;;;;;;80.28;73.90;;;15.50;99.90;;;;;;4970995;28;20120;-72
2023/05/12 07:59:22;;;;;;;79.05;72.38;;;15.60;99.90;;;;;;4988109;28;20073;-72
2023/05/12 08:01:48;;;;;;;61.47;55.85;;;15.80;99.90;;;;;;4974628;28;20388;-72
2023/05/12 08:04:14;;;;;;;72.10;65.28;;;15.90;99.90;;;;;;4986349;28;20056;-73
2023/05/12 08:06:39;;;;;;;70.50;64.35;;;16.10;99.90;;;;;;4987402;28;20387;-73
2023/05/12 08:09:05;;;;;;;60.45;54.80;;;16.30;99.90;;;;;;4986818;28;20042;-73
2023/05/12 08:11:31;;;;;;;66.47;60.63;;;16.60;99.90;;;;;;4987158;28;20065;-73
2023/05/12 08:13:56;;;;;;;106.78;99.65;;;16.90;99.90;;;;;;4987492;28;20434;-73
2023/05/12 08:16:22;;;;;;;112.60;105.07;;;17.00;99.90;;;;;;4985029;28;20049;-73
2023/05/12 08:18:48;;;;;;;95.78;89.03;;;17.20;99.90;;;;;;4987741;28;20042;-73
2023/05/12 08:21:13;;;;;;;123.97;116.00;;;17.40;99.90;;;;;;4969299;28;20151;-73
2023/05/12 08:23:39;;;;;;;120.90;113.40;;;17.40;99.90;;;;;;4986382;28;20104;-73
2023/05/12 08:26:05;;;;;;;130.35;122.20;;;17.40;99.90;;;;;;4974376;28;20050;-73
2023/05/12 08:28:31;;;;;;;154.55;145.15;;;17.40;99.90;;;;;;4968015;28;20038;-73
2023/05/12 08:30:57;;;;;;;92.35;85.68;;;17.50;99.90;;;;;;4982804;28;20046;-73
2023/05/12 08:33:23;;;;;;;84.35;78.25;;;17.70;99.90;;;;;;4984955;28;20038;-73
2023/05/12 08:35:49;;;;;;;67.45;62.13;;;17.70;99.90;;;;;;4985995;28;20045;-73
2023/05/12 08:38:15;;;;;;;70.35;64.75;;;17.70;99.90;;;;;;4991295;28;20048;-73
2023/05/12 08:41:14;;;;;;;169.43;159.82;;;17.60;99.90;;;;;;4986238;28;20483;-73
2023/05/12 08:43:47;;;;;;;97.85;90.88;;;17.70;99.90;;;;;;4995305;28;20121;-73
2023/05/12 08:46:13;;;;;;;95.45;89.07;;;17.90;99.90;;;;;;4985667;28;20144;-73
2023/05/12 08:48:40;;;;;;;143.88;135.65;;;18.00;99.90;;;;;;4985939;28;20096;-73
2023/05/12 08:51:10;;;;;;;140.93;133.05;;;18.10;99.90;;;;;;4979983;28;20129;-73
2023/05/12 08:53:37;;;;;;;147.07;138.85;;;18.10;99.90;;;;;;4985305;28;20046;-73
2023/05/12 08:56:06;;;;;;;79.03;73.63;;;18.10;99.90;;;;;;4986113;28;20046;-73
2023/05/12 08:58:32;;;;;;;99.57;93.10;;;18.20;99.90;;;;;;4987453;28;20061;-72
2023/05/12 09:01:06;;;;;;;192.35;182.30;;;18.40;99.90;;;;;;4985865;28;20064;-72
2023/05/12 09:03:33;;;;;;;162.80;153.65;;;18.70;99.90;;;;;;4986731;28;20046;-73
2023/05/12 09:05:59;;;;;;;130.50;123.20;;;18.80;99.90;;;;;;4986849;28;20050;-73
2023/05/12 09:08:28;;;;;;;193.10;182.82;;;19.00;99.90;;;;;;4967624;28;20052;-73
2023/05/12 09:10:57;;;;;;;151.52;143.27;;;19.20;99.90;;;;;;4974086;28;20113;-73
2023/05/12 09:13:30;;;;;;;160.90;152.07;;;19.70;99.90;;;;;;4986458;28;20176;-73
2023/05/12 09:15:59;;;;;;;109.63;102.85;;;20.00;99.90;;;;;;4986328;28;20100;-73
2023/05/12 09:18:25;;;;;;;48.30;44.00;;;20.10;99.90;;;;;;4969848;28;20701;-73
2023/05/12 09:20:51;;;;;;;71.47;66.40;;;20.20;99.90;;;;;;4986384;28;20034;-73
2023/05/12 09:23:19;;;;;;;78.13;73.05;;;20.50;99.90;;;;;;4986018;28;20503;-73
2023/05/12 09:25:48;;;;;;;105.93;99.82;;;20.90;99.90;;;;;;4970046;28;20592;-73
2023/05/12 09:28:13;;;;;;;43.90;40.17;;;21.30;99.90;;;;;;4957850;28;20042;-73
2023/05/12 09:30:41;;;;;;;44.28;40.75;;;21.70;99.90;;;;;;4986584;28;20049;-73
2023/05/12 09:33:11;;;;;;;68.55;64.03;;;21.80;99.90;;;;;;4986098;28;20384;-73
2023/05/12 09:35:39;;;;;;;83.43;78.47;;;22.00;99.90;;;;;;4986387;28;20050;-73
2023/05/12 09:38:09;;;;;;;92.15;86.93;;;22.20;99.90;;;;;;4989240;28;20027;-73
2023/05/12 09:40:35;;;;;;;49.50;45.92;;;22.10;99.90;;;;;;4985260;28;20370;-73
2023/05/12 09:43:01;;;;;;;65.70;61.30;;;22.20;99.90;;;;;;4978041;28;20502;-73
2023/05/12 09:45:27;;;;;;;85.18;80.20;;;22.10;99.90;;;;;;4985263;28;20689;-73
2023/05/12 09:47:53;;;;;;;81.15;76.38;;;22.10;99.90;;;;;;4987452;28;20465;-73
2023/05/12 09:50:18;;;;;;;78.22;73.50;;;21.90;99.90;;;;;;4981832;28;20054;-72
2023/05/12 09:52:44;;;;;;;70.13;65.70;;;21.90;99.90;;;;;;4986610;28;20035;-73
2023/05/12 09:55:11;;;;;;;83.85;79.03;;;21.80;99.90;;;;;;4985894;28;20486;-73
2023/05/12 09:57:42;;;;;;;83.93;79.10;;;21.80;99.90;;;;;;4985984;28;20046;-73
2023/05/12 10:00:13;;;;;;;55.70;51.95;;;21.90;99.90;;;;;;4982347;28;20050;-73
2023/05/12 10:02:43;;;;;;;59.72;55.92;;;22.00;99.90;;;;;;4973684;28;20602;-73
2023/05/12 10:05:17;;;;;;;89.60;84.57;;;22.00;99.90;;;;;;4984346;28;20046;-73
2023/05/12 10:07:45;;;;;;;64.32;60.45;;;22.10;99.90;;;;;;4985604;28;20042;-73
2023/05/12 10:10:13;;;;;;;82.90;78.22;;;22.10;99.90;;;;;;4985538;28;20104;-73
2023/05/12 10:12:40;;;;;;;99.53;94.30;;;22.00;99.90;;;;;;4975434;28;20051;-73
2023/05/12 10:15:08;;;;;;;125.65;119.07;;;21.70;99.90;;;;;;4985438;28;20461;-73
2023/05/12 10:17:35;;;;;;;53.63;49.90;;;21.60;99.90;;;;;;4984660;28;20042;-73
2023/05/12 10:20:05;;;;;;;42.88;39.85;;;21.60;99.90;;;;;;4970555;28;20076;-73
2023/05/12 10:22:33;;;;;;;58.63;54.85;;;21.80;99.90;;;;;;4976781;28;20043;-72
2023/05/12 10:25:00;;;;;;;60.50;56.80;;;22.10;99.90;;;;;;4982022;28;20047;-73
2023/05/12 10:27:27;;;;;;;57.10;53.35;;;22.40;99.90;;;;;;4967017;28;20061;-73
2023/05/12 10:29:54;;;;;;;73.72;69.53;;;22.70;99.90;;;;;;4999685;28;20120;-73
2023/05/12 10:32:20;;;;;;;88.75;83.90;;;23.10;99.90;;;;;;4987973;28;20457;-73
2023/05/12 10:34:45;;;;;;;66.55;62.65;;;23.20;99.90;;;;;;4988278;28;20141;-73
2023/05/12 10:37:11;;;;;;;101.47;96.22;;;23.20;99.90;;;;;;4989716;28;20042;-72
2023/05/12 10:39:46;;;;;;;129.40;123.13;;;23.30;99.90;;;;;;4990664;28;20213;-73
2023/05/12 10:42:21;;;;;;;39.97;37.08;;;23.30;99.90;;;;;;4990019;28;20196;-73
2023/05/12 10:44:52;;;;;;;113.38;107.43;;;23.30;99.90;;;;;;4987489;28;20045;-72
2023/05/12 10:47:18;;;;;;;147.95;140.65;;;23.40;99.90;;;;;;4989491;28;20050;-73
2023/05/12 10:49:44;;;;;;;85.13;80.45;;;23.30;99.90;;;;;;4987892;28;20077;-73
2023/05/12 10:52:18;;;;;;;80.20;75.75;;;23.40;99.90;;;;;;4988343;28;20070;-73
2023/05/12 10:54:44;;;;;;;158.98;151.20;;;23.40;99.90;;;;;;4977425;28;20045;-72
2023/05/12 10:57:18;;;;;;;66.40;62.38;;;23.40;99.90;;;;;;4989021;28;20136;-73
2023/05/12 10:59:56;;;;;;;129.20;122.60;;;23.50;99.90;;;;;;4949664;28;20988;-73
2023/05/12 11:02:31;;;;;;;66.57;62.72;;;23.60;99.90;;;;;;4971452;28;20105;-73
2023/05/12 11:05:03;;;;;;;88.88;84.07;;;23.50;99.90;;;;;;4968925;28;20537;-73
2023/05/12 11:07:31;;;;;;;90.30;85.28;;;23.50;99.90;;;;;;4955264;28;20042;-72
2023/05/12 11:09:59;;;;;;;80.30;76.07;;;23.60;99.90;;;;;;4968380;28;20070;-73
2023/05/12 11:12:27;;;;;;;98.70;93.68;;;23.80;99.90;;;;;;4973531;28;20240;-73
2023/05/12 11:14:53;;;;;;;138.45;131.85;;;23.90;99.90;;;;;;4969712;28;20042;-72
2023/05/12 11:17:19;;;;;;;107.43;102.32;;;23.90;99.90;;;;;;4968464;28;20043;-72
2023/05/12 11:19:49;;;;;;;49.58;46.67;;;23.80;99.90;;;;;;4974646;28;20061;-73
2023/05/12 11:22:22;;;;;;;105.57;100.57;;;23.70;99.90;;;;;;4980124;28;20051;-72
2023/05/12 11:24:49;;;;;;;105.85;100.53;;;23.70;99.90;;;;;;4981427;28;20046;-72
2023/05/12 11:27:17;;;;;;;45.00;42.30;;;23.60;99.80;;;;;;4981979;28;20054;-73
2023/05/12 11:29:45;;;;;;;53.92;50.78;;;23.70;99.90;;;;;;4986463;28;20445;-70
2023/05/12 11:32:11;;;;;;;47.03;44.30;;;23.90;99.90;;;;;;4985829;28;20164;-72
2023/05/12 11:34:37;;;;;;;57.65;54.47;;;23.80;99.90;;;;;;4988503;28;20796;-72
2023/05/12 11:37:05;;;;;;;36.78;34.47;;;23.60;99.60;;;;;;4988675;28;20038;-72
2023/05/12 11:39:31;;;;;;;55.97;53.03;;;23.50;99.90;;;;;;4977213;28;20130;-72
2023/05/12 11:42:08;;;;;;;53.95;50.85;;;23.50;99.90;;;;;;4964628;28;20108;-72
2023/05/12 11:44:34;;;;;;;34.35;32.20;;;23.60;99.90;;;;;;4987458;28;20042;-72
2023/05/12 11:47:09;;;;;;;50.78;47.88;;;23.60;99.90;;;;;;4987091;28;20048;-72
2023/05/12 11:49:45;;;;;;;34.15;31.75;;;23.90;99.90;;;;;;4986629;28;20049;-72
2023/05/12 11:52:11;;;;;;;28.95;27.05;;;24.00;99.90;;;;;;4971850;28;20045;-73
2023/05/12 11:54:36;;;;;;;42.13;39.72;;;24.10;99.90;;;;;;4987091;28;20035;-73
2023/05/12 11:57:03;;;;;;;33.90;31.88;;;24.20;99.90;;;;;;4960188;28;20047;-73
2023/05/12 11:59:34;;;;;;;21.25;19.75;;;24.50;99.90;;;;;;4987447;28;20043;-72
2023/05/12 12:02:02;;;;;;;43.30;40.92;;;24.70;99.50;;;;;;4987983;28;20593;-73
2023/05/12 12:04:39;;;;;;;41.05;38.45;;;24.80;98.90;;;;;;4986954;28;20046;-72
2023/05/12 12:07:06;;;;;;;39.38;37.03;;;24.90;99.70;;;;;;4983336;28;20703;-72
2023/05/12 12:09:37;;;;;;;68.43;65.00;;;24.90;96.70;;;;;;4986507;28;20046;-72
2023/05/12 12:12:04;;;;;;;37.78;35.67;;;24.80;98.40;;;;;;4986307;28;20089;-72
2023/05/12 12:14:31;;;;;;;22.75;21.30;;;24.90;99.10;;;;;;4977963;28;20105;-72
2023/05/12 12:16:58;;;;;;;30.50;28.63;;;25.00;98.10;;;;;;4988042;28;20046;-72
2023/05/12 12:19:24;;;;;;;57.53;54.40;;;25.10;97.50;;;;;;4986960;28;20089;-73
2023/05/12 12:21:50;;;;;;;38.85;36.58;;;25.20;97.50;;;;;;4988014;28;20633;-72
2023/05/12 12:24:16;;;;;;;36.30;34.25;;;25.30;96.50;;;;;;4980093;28;20098;-73